Portada
METAR-TAF:

METAR-TAF

Aeroports :

Cabo San Lucas, Mèxic

latitud: 22-56-51N, longitud: 109-56-13W, altitud: 210 m

Observació

L'informe es va fer fa 4 hores i 33 minuts, a les 01:40 UTC
Vent 7 kt del Oest/Nord-Oest
Temperatura 27°C
Humitat 70%
Pressió 1014 hPa
Visibilitat: 12.9 km
Cel clar

METAR: MMSL 240140Z 30007KT 8SM SKC 27/21 A2993

Hora: 23:13 (06:13 UTC)

Pronòstic

L'informe es va fer fa 3 hores i 53 minuts, a les 02:20 UTC
Pronòstic vàlid del 24 a les 06 UTC al 25 a les 06 UTC
Vent 8 kt del Oest/Nord-Oest
Visibilitat: 10 km
Cel clar
A partir de les 24 a les 1900 UTC
Vent 10 kt del Sud/Sud-Est
Visibilitat: 10 km
Cel clar
A partir de les 25 a les 0300 UTC
Vent 8 kt del Oest/Nord-Oest
Visibilitat: 10 km
Cel clar

TAF: MMSL 240220Z 2406/2506 30008KT P6SM SKC FM241900 16010KT P6SM SKC FM250300 30008KT P6SM SKC

Observacions i pronòstics meteorològics de més de 4000 aeroports (METAR i TAF).

Les estacions disponibles són els punts grocs i vermells al mapa.

Posi el ratolí al punt desitjat per veure el nom de l'estació.

Feu clic per veure les observacions i els pronòstics meteorològics.

Per canviar el mapa: feu clic els botons verds amb una creu de color negre per apropar; al botó verd amb un guió per allunyar la imatge; o en les fletxes verdes per a mapes adjacents.


METAR-TAF: